Aegean Navigator — SWBI — position and weather

sailwx.info

Track history (hours):
 
Tides and Currents Weather Stations Pressure Air Temp Water Temp Dewpoint Dewpoint Depression Visibility Wind Speed Wind Dir Waves Ship Positions

Aegean Navigator

Last reported at 2016-Aug-21 10:33 UTC. Time now 2016-Aug-31 16:01 UTC.
Position N 27°44' W 015°12'.
Warning: this ship's position is 10 days out of date.

Length 274 m; draft 9 m.

Type: Ship. MMSI: 240634000.

Date/timePositionNaut miles runAvg speedWind from/ knotsBaromVisibWave heightAir tempDewpointWater temp
2016-Aug-21 10:33N 27°44' W 015°12'1514.8
2016-Aug-21 09:34N 27°59' W 015°12'1111.3
2016-Aug-21 08:34N 28°07' W 015°21'1 0.7
2016-Aug-21 07:33N 28°07' W 015°21'4 4.0
2016-Aug-21 06:34N 28°07' W 015°17'6 6.5
2016-Aug-21 05:34N 28°09' W 015°10'1111.3
2016-Aug-21 04:33N 28°14' W 014°58'1514.5
2016-Aug-21 03:33N 28°27' W 014°50'1515.1
2016-Aug-21 02:33N 28°38' W 014°39'1515.1
2016-Aug-21 01:34N 28°50' W 014°28'1514.8
2016-Aug-21 00:33N 29°02' W 014°18'1515.3
2016-Aug-20 23:33N 29°13' W 014°07'1515.3
2016-Aug-20 22:33N 29°25' W 013°56'1515.0
2016-Aug-20 21:33N 29°37' W 013°45'1515.4
2016-Aug-20 20:33N 29°49' W 013°34'1615.6
2016-Aug-20 19:32N 30°02' W 013°23'1715.7
2016-Aug-20 18:28N 30°14' W 013°10'1415.6
2016-Aug-20 17:33N 30°26' W 012°60'1615.5
2016-Aug-20 16:33N 30°37' W 012°48'2115.8
2016-Aug-20 15:15N 30°54' W 012°34'1215.7
2016-Aug-20 14:28N 31°03' W 012°24'1815.2
2016-Aug-20 13:18N 31°17' W 012°11'6115.3
2016-Aug-20 09:20N 32°04' W 011°27'1715.1
2016-Aug-20 08:12N 32°17' W 011°14'25915.3
2016-Aug-19 15:13N 35°39' W 007°57'2914.7
2016-Aug-19 13:16N 36°01' W 007°35'1314.5
2016-Aug-19 12:24N 36°10' W 007°24'1614.9
2016-Aug-19 11:20N 36°23' W 007°13'31 1.9
2016-Aug-18 19:22N 36°47' W 006°48'0 0.0
2016-Aug-18 18:07N 36°47' W 006°48'0 0.0
2016-Aug-18 16:28N 36°47' W 006°48'0 0.0
2016-Aug-18 14:13N 36°47' W 006°48'0 0.0
2016-Aug-18 12:16N 36°47' W 006°48'0 0.0
2016-Aug-18 06:31N 36°47' W 006°49'0 0.0
2016-Aug-18 05:25N 36°47' W 006°49'0 0.0
2016-Aug-18 04:31N 36°47' W 006°49'0 0.0
2016-Aug-18 03:22N 36°47' W 006°48'0 0.0
2016-Aug-17 18:19N 36°47' W 006°48'  
Track history (hours):
 
Tides and Currents Weather Stations Pressure Air Temp Water Temp Dewpoint Dewpoint Depression Visibility Wind Speed Wind Dir Waves Ship Positions

Aegean Navigator

Last reported at 2016-Aug-21 10:33 UTC. Time now 2016-Aug-31 16:01 UTC.
Position N 27°44' W 015°12'.
Warning: this ship's position is 10 days out of date.

Length 274 m; draft 9 m.

Type: Ship. MMSI: 240634000.

Date/timePositionNaut miles runAvg speedWind from/ knotsBaromVisibWave heightAir tempDewpointWater temp
2016-Aug-21 10:33N 27°44' W 015°12'1514.8
2016-Aug-21 09:34N 27°59' W 015°12'1111.3
2016-Aug-21 08:34N 28°07' W 015°21'1 0.7
2016-Aug-21 07:33N 28°07' W 015°21'4 4.0
2016-Aug-21 06:34N 28°07' W 015°17'6 6.5
2016-Aug-21 05:34N 28°09' W 015°10'1111.3
2016-Aug-21 04:33N 28°14' W 014°58'1514.5
2016-Aug-21 03:33N 28°27' W 014°50'1515.1
2016-Aug-21 02:33N 28°38' W 014°39'1515.1
2016-Aug-21 01:34N 28°50' W 014°28'1514.8
2016-Aug-21 00:33N 29°02' W 014°18'1515.3
2016-Aug-20 23:33N 29°13' W 014°07'1515.3
2016-Aug-20 22:33N 29°25' W 013°56'1515.0
2016-Aug-20 21:33N 29°37' W 013°45'1515.4
2016-Aug-20 20:33N 29°49' W 013°34'1615.6
2016-Aug-20 19:32N 30°02' W 013°23'1715.7
2016-Aug-20 18:28N 30°14' W 013°10'1415.6
2016-Aug-20 17:33N 30°26' W 012°60'1615.5
2016-Aug-20 16:33N 30°37' W 012°48'2115.8
2016-Aug-20 15:15N 30°54' W 012°34'1215.7
2016-Aug-20 14:28N 31°03' W 012°24'1815.2
2016-Aug-20 13:18N 31°17' W 012°11'6115.3
2016-Aug-20 09:20N 32°04' W 011°27'1715.1
2016-Aug-20 08:12N 32°17' W 011°14'25915.3
2016-Aug-19 15:13N 35°39' W 007°57'2914.7
2016-Aug-19 13:16N 36°01' W 007°35'1314.5
2016-Aug-19 12:24N 36°10' W 007°24'1614.9
2016-Aug-19 11:20N 36°23' W 007°13'31 1.9
2016-Aug-18 19:22N 36°47' W 006°48'0 0.0
2016-Aug-18 18:07N 36°47' W 006°48'0 0.0
2016-Aug-18 16:28N 36°47' W 006°48'0 0.0
2016-Aug-18 14:13N 36°47' W 006°48'0 0.0
2016-Aug-18 12:16N 36°47' W 006°48'0 0.0
2016-Aug-18 06:31N 36°47' W 006°49'0 0.0
2016-Aug-18 05:25N 36°47' W 006°49'0 0.0
2016-Aug-18 04:31N 36°47' W 006°49'0 0.0
2016-Aug-18 03:22N 36°47' W 006°48'0 0.0
2016-Aug-17 18:19N 36°47' W 006°48'  

Dump ship's entire track history